sensor_id;sensor_type;location;lat;lon;timestamp;P1;durP1;ratioP1;P2;durP2;ratioP2
9667;SDS011;4872;48.316;10.650;2023-02-28T05:06:32;9.27;;;7.00;;
9667;SDS011;4872;48.316;10.650;2023-02-28T05:08:59;10.47;;;6.60;;
9667;SDS011;4872;48.316;10.650;2023-02-28T05:11:27;12.33;;;7.13;;
9667;SDS011;4872;48.316;10.650;2023-02-28T05:13:58;9.27;;;7.00;;
9667;SDS011;4872;48.316;10.650;2023-02-28T05:16:25;8.80;;;7.60;;
9667;SDS011;4872;48.316;10.650;2023-02-28T05:18:52;9.93;;;7.73;;
9667;SDS011;4872;48.316;10.650;2023-02-28T05:21:23;7.77;;;6.97;;
9667;SDS011;4872;48.316;10.650;2023-02-28T05:23:53;6.77;;;6.07;;
9667;SDS011;4872;48.316;10.650;2023-02-28T05:26:21;12.53;;;7.53;;
9667;SDS011;4872;48.316;10.650;2023-02-28T05:28:48;9.43;;;7.17;;
9667;SDS011;4872;48.316;10.650;2023-02-28T05:31:15;10.00;;;7.90;;
9667;SDS011;4872;48.316;10.650;2023-02-28T05:33:42;10.37;;;7.50;;
9667;SDS011;4872;48.316;10.650;2023-02-28T05:36:09;8.87;;;7.83;;
9667;SDS011;4872;48.316;10.650;2023-02-28T05:38:35;9.83;;;7.17;;
9667;SDS011;4872;48.316;10.650;2023-02-28T05:41:06;9.43;;;7.37;;
9667;SDS011;4872;48.316;10.650;2023-02-28T05:43:33;16.20;;;7.70;;
9667;SDS011;4872;48.316;10.650;2023-02-28T05:46:01;11.93;;;7.60;;
9667;SDS011;4872;48.316;10.650;2023-02-28T05:48:29;9.90;;;6.93;;
9667;SDS011;4872;48.316;10.650;2023-02-28T05:50:56;9.70;;;7.43;;
9667;SDS011;4872;48.316;10.650;2023-02-28T05:53:23;9.10;;;7.20;;
9667;SDS011;4872;48.316;10.650;2023-02-28T05:55:50;9.10;;;7.57;;
9667;SDS011;4872;48.316;10.650;2023-02-28T05:58:18;8.50;;;6.97;;
9667;SDS011;4872;48.316;10.650;2023-02-28T06:00:45;11.03;;;8.00;;
9667;SDS011;4872;48.316;10.650;2023-02-28T06:03:11;11.50;;;8.37;;
9667;SDS011;4872;48.316;10.650;2023-02-28T06:05:38;8.93;;;7.30;;
9667;SDS011;4872;48.316;10.650;2023-02-28T06:08:05;14.63;;;7.63;;
9667;SDS011;4872;48.316;10.650;2023-02-28T06:10:32;13.67;;;8.90;;
9667;SDS011;4872;48.316;10.650;2023-02-28T06:12:59;9.77;;;8.50;;
9667;SDS011;4872;48.316;10.650;2023-02-28T06:15:28;10.47;;;8.03;;
9667;SDS011;4872;48.316;10.650;2023-02-28T06:17:55;10.80;;;8.80;;
9667;SDS011;4872;48.316;10.650;2023-02-28T06:20:23;9.87;;;8.67;;
9667;SDS011;4872;48.316;10.650;2023-02-28T06:22:51;9.90;;;8.00;;
9667;SDS011;4872;48.316;10.650;2023-02-28T06:25:19;10.20;;;8.10;;
9667;SDS011;4872;48.316;10.650;2023-02-28T06:27:46;9.30;;;8.30;;
9667;SDS011;4872;48.316;10.650;2023-02-28T06:30:14;13.73;;;10.23;;
9667;SDS011;4872;48.316;10.650;2023-02-28T06:32:42;13.10;;;9.47;;
9667;SDS011;4872;48.316;10.650;2023-02-28T06:35:09;13.57;;;8.90;;
9667;SDS011;4872;48.316;10.650;2023-02-28T06:37:35;11.37;;;8.73;;
9667;SDS011;4872;48.316;10.650;2023-02-28T06:40:03;11.80;;;9.13;;
9667;SDS011;4872;48.316;10.650;2023-02-28T06:42:31;14.53;;;11.30;;
9667;SDS011;4872;48.316;10.650;2023-02-28T06:44:58;14.00;;;10.83;;
9667;SDS011;4872;48.316;10.650;2023-02-28T06:47:25;15.17;;;11.53;;
9667;SDS011;4872;48.316;10.650;2023-02-28T06:49:53;15.57;;;11.20;;
9667;SDS011;4872;48.316;10.650;2023-02-28T06:52:20;13.33;;;10.97;;
9667;SDS011;4872;48.316;10.650;2023-02-28T06:54:47;14.90;;;11.33;;
9667;SDS011;4872;48.316;10.650;2023-02-28T06:57:24;16.13;;;11.10;;
9667;SDS011;4872;48.316;10.650;2023-02-28T06:59:51;18.80;;;11.60;;
9667;SDS011;4872;48.316;10.650;2023-02-28T07:02:18;15.90;;;11.50;;
9667;SDS011;4872;48.316;10.650;2023-02-28T07:04:44;16.07;;;11.60;;
9667;SDS011;4872;48.316;10.650;2023-02-28T07:07:13;15.50;;;11.33;;
9667;SDS011;4872;48.316;10.650;2023-02-28T07:09:39;14.77;;;11.50;;
9667;SDS011;4872;48.316;10.650;2023-02-28T07:12:06;15.63;;;11.57;;
9667;SDS011;4872;48.316;10.650;2023-02-28T07:14:33;13.63;;;11.47;;
9667;SDS011;4872;48.316;10.650;2023-02-28T07:17:02;14.23;;;10.73;;
9667;SDS011;4872;48.316;10.650;2023-02-28T07:19:29;17.90;;;12.00;;
9667;SDS011;4872;48.316;10.650;2023-02-28T07:21:55;16.27;;;11.30;;
9667;SDS011;4872;48.316;10.650;2023-02-28T07:24:23;16.47;;;11.60;;
9667;SDS011;4872;48.316;10.650;2023-02-28T07:26:53;15.73;;;10.80;;
9667;SDS011;4872;48.316;10.650;2023-02-28T07:29:19;14.67;;;11.60;;
9667;SDS011;4872;48.316;10.650;2023-02-28T07:31:46;14.33;;;10.97;;
9667;SDS011;4872;48.316;10.650;2023-02-28T07:34:15;18.27;;;11.70;;
9667;SDS011;4872;48.316;10.650;2023-02-28T07:36:41;16.27;;;11.67;;
9667;SDS011;4872;48.316;10.650;2023-02-28T07:39:08;14.03;;;11.03;;
9667;SDS011;4872;48.316;10.650;2023-02-28T07:41:36;15.00;;;11.27;;
9667;SDS011;4872;48.316;10.650;2023-02-28T07:44:08;14.90;;;11.83;;
9667;SDS011;4872;48.316;10.650;2023-02-28T07:46:35;14.10;;;10.60;;
9667;SDS011;4872;48.316;10.650;2023-02-28T07:49:02;15.23;;;11.50;;
9667;SDS011;4872;48.316;10.650;2023-02-28T07:51:29;16.50;;;11.60;;
9667;SDS011;4872;48.316;10.650;2023-02-28T07:53:56;14.67;;;11.03;;
9667;SDS011;4872;48.316;10.650;2023-02-28T07:56:23;13.63;;;10.93;;
9667;SDS011;4872;48.316;10.650;2023-02-28T07:58:51;14.23;;;11.33;;
9667;SDS011;4872;48.316;10.650;2023-02-28T08:01:18;14.47;;;10.40;;
9667;SDS011;4872;48.316;10.650;2023-02-28T08:03:45;15.33;;;11.27;;
9667;SDS011;4872;48.316;10.650;2023-02-28T08:06:15;13.30;;;10.67;;
9667;SDS011;4872;48.316;10.650;2023-02-28T08:08:43;16.30;;;12.03;;
9667;SDS011;4872;48.316;10.650;2023-02-28T08:11:10;14.67;;;11.80;;
9667;SDS011;4872;48.316;10.650;2023-02-28T08:13:37;16.80;;;11.47;;
9667;SDS011;4872;48.316;10.650;2023-02-28T08:16:05;15.17;;;11.23;;
9667;SDS011;4872;48.316;10.650;2023-02-28T08:18:32;15.90;;;11.40;;
9667;SDS011;4872;48.316;10.650;2023-02-28T08:20:59;14.20;;;11.03;;
9667;SDS011;4872;48.316;10.650;2023-02-28T08:23:31;14.67;;;11.20;;
9667;SDS011;4872;48.316;10.650;2023-02-28T08:25:58;15.13;;;10.83;;
9667;SDS011;4872;48.316;10.650;2023-02-28T08:28:25;16.47;;;11.37;;
9667;SDS011;4872;48.316;10.650;2023-02-28T08:30:52;16.47;;;11.47;;
9667;SDS011;4872;48.316;10.650;2023-02-28T08:33:20;13.10;;;11.40;;
9667;SDS011;4872;48.316;10.650;2023-02-28T08:35:47;13.43;;;10.70;;
9667;SDS011;4872;48.316;10.650;2023-02-28T08:38:14;16.37;;;12.03;;
9667;SDS011;4872;48.316;10.650;2023-02-28T08:40:41;13.37;;;10.90;;
9667;SDS011;4872;48.316;10.650;2023-02-28T08:43:07;14.60;;;11.10;;
9667;SDS011;4872;48.316;10.650;2023-02-28T08:45:34;16.03;;;11.77;;
9667;SDS011;4872;48.316;10.650;2023-02-28T08:48:01;15.93;;;11.20;;
9667;SDS011;4872;48.316;10.650;2023-02-28T08:50:29;14.40;;;11.33;;
9667;SDS011;4872;48.316;10.650;2023-02-28T08:52:56;17.60;;;11.50;;
9667;SDS011;4872;48.316;10.650;2023-02-28T08:55:23;14.00;;;11.07;;
9667;SDS011;4872;48.316;10.650;2023-02-28T08:57:50;15.63;;;11.30;;
9667;SDS011;4872;48.316;10.650;2023-02-28T09:00:17;14.83;;;11.40;;
9667;SDS011;4872;48.316;10.650;2023-02-28T09:02:45;16.57;;;11.10;;
9667;SDS011;4872;48.316;10.650;2023-02-28T09:05:11;14.17;;;10.77;;
9667;SDS011;4872;48.316;10.650;2023-02-28T09:07:39;13.07;;;10.93;;
9667;SDS011;4872;48.316;10.650;2023-02-28T09:10:06;15.70;;;12.33;;
9667;SDS011;4872;48.316;10.650;2023-02-28T09:12:34;17.50;;;11.87;;
9667;SDS011;4872;48.316;10.650;2023-02-28T09:15:01;15.57;;;11.50;;
9667;SDS011;4872;48.316;10.650;2023-02-28T09:17:28;16.80;;;11.97;;
9667;SDS011;4872;48.316;10.650;2023-02-28T09:19:55;15.20;;;11.57;;
9667;SDS011;4872;48.316;10.650;2023-02-28T09:22:22;16.13;;;12.67;;
9667;SDS011;4872;48.316;10.650;2023-02-28T09:24:50;15.13;;;11.63;;
9667;SDS011;4872;48.316;10.650;2023-02-28T09:27:16;16.73;;;11.23;;
9667;SDS011;4872;48.316;10.650;2023-02-28T09:29:43;16.17;;;11.13;;
9667;SDS011;4872;48.316;10.650;2023-02-28T09:32:10;12.30;;;10.33;;
9667;SDS011;4872;48.316;10.650;2023-02-28T09:34:37;15.10;;;11.30;;
9667;SDS011;4872;48.316;10.650;2023-02-28T09:37:04;16.73;;;12.50;;
9667;SDS011;4872;48.316;10.650;2023-02-28T09:39:30;15.03;;;11.27;;
9667;SDS011;4872;48.316;10.650;2023-02-28T09:41:58;12.87;;;11.13;;
9667;SDS011;4872;48.316;10.650;2023-02-28T09:44:28;15.60;;;12.27;;
9667;SDS011;4872;48.316;10.650;2023-02-28T09:46:58;16.50;;;11.10;;
9667;SDS011;4872;48.316;10.650;2023-02-28T09:49:32;14.97;;;11.00;;
9667;SDS011;4872;48.316;10.650;2023-02-28T09:52:03;15.60;;;11.30;;
9667;SDS011;4872;48.316;10.650;2023-02-28T09:54:34;12.57;;;10.20;;
9667;SDS011;4872;48.316;10.650;2023-02-28T09:57:04;14.00;;;11.47;;
9667;SDS011;4872;48.316;10.650;2023-02-28T09:59:39;14.07;;;11.20;;
9667;SDS011;4872;48.316;10.650;2023-02-28T10:02:32;14.73;;;11.80;;
9667;SDS011;4872;48.316;10.650;2023-02-28T10:05:27;12.90;;;9.70;;
9667;SDS011;4872;48.316;10.650;2023-02-28T10:08:00;12.67;;;10.17;;
9667;SDS011;4872;48.316;10.650;2023-02-28T10:10:33;12.90;;;10.53;;
9667;SDS011;4872;48.316;10.650;2023-02-28T10:13:06;16.20;;;11.57;;
9667;SDS011;4872;48.316;10.650;2023-02-28T10:15:50;13.57;;;10.57;;
9667;SDS011;4872;48.316;10.650;2023-02-28T10:18:21;15.03;;;11.03;;
9667;SDS011;4872;48.316;10.650;2023-02-28T10:20:51;16.80;;;10.40;;
9667;SDS011;4872;48.316;10.650;2023-02-28T10:23:21;13.83;;;10.93;;
9667;SDS011;4872;48.316;10.650;2023-02-28T10:25:53;13.40;;;10.80;;
9667;SDS011;4872;48.316;10.650;2023-02-28T10:28:25;12.70;;;11.13;;
9667;SDS011;4872;48.316;10.650;2023-02-28T10:30:55;13.27;;;10.57;;
9667;SDS011;4872;48.316;10.650;2023-02-28T10:33:25;13.60;;;10.83;;
9667;SDS011;4872;48.316;10.650;2023-02-28T10:35:55;12.23;;;10.37;;
9667;SDS011;4872;48.316;10.650;2023-02-28T10:38:23;12.60;;;10.60;;
9667;SDS011;4872;48.316;10.650;2023-02-28T10:41:03;12.13;;;9.77;;
9667;SDS011;4872;48.316;10.650;2023-02-28T10:43:32;14.27;;;10.70;;
9667;SDS011;4872;48.316;10.650;2023-02-28T10:46:01;11.40;;;10.03;;
9667;SDS011;4872;48.316;10.650;2023-02-28T10:48:32;10.90;;;9.40;;
9667;SDS011;4872;48.316;10.650;2023-02-28T10:51:00;10.70;;;9.47;;
9667;SDS011;4872;48.316;10.650;2023-02-28T10:53:30;13.97;;;9.93;;
9667;SDS011;4872;48.316;10.650;2023-02-28T10:56:00;11.67;;;9.70;;
9667;SDS011;4872;48.316;10.650;2023-02-28T10:58:29;14.10;;;10.23;;
9667;SDS011;4872;48.316;10.650;2023-02-28T11:00:59;14.73;;;10.37;;
9667;SDS011;4872;48.316;10.650;2023-02-28T11:03:31;12.27;;;9.20;;
9667;SDS011;4872;48.316;10.650;2023-02-28T11:06:04;13.70;;;10.30;;
9667;SDS011;4872;48.316;10.650;2023-02-28T11:08:32;14.63;;;10.00;;
9667;SDS011;4872;48.316;10.650;2023-02-28T11:11:00;13.83;;;9.47;;
9667;SDS011;4872;48.316;10.650;2023-02-28T11:13:31;14.20;;;10.63;;
9667;SDS011;4872;48.316;10.650;2023-02-28T11:16:02;12.63;;;10.20;;
9667;SDS011;4872;48.316;10.650;2023-02-28T11:18:33;12.00;;;9.63;;
9667;SDS011;4872;48.316;10.650;2023-02-28T11:21:04;13.17;;;10.27;;
9667;SDS011;4872;48.316;10.650;2023-02-28T11:23:32;10.73;;;9.13;;
9667;SDS011;4872;48.316;10.650;2023-02-28T11:26:02;16.53;;;10.40;;
9667;SDS011;4872;48.316;10.650;2023-02-28T11:28:35;12.00;;;10.13;;
9667;SDS011;4872;48.316;10.650;2023-02-28T11:31:06;16.27;;;12.67;;
9667;SDS011;4872;48.316;10.650;2023-02-28T11:33:44;12.27;;;10.30;;
9667;SDS011;4872;48.316;10.650;2023-02-28T11:36:14;11.77;;;9.43;;
9667;SDS011;4872;48.316;10.650;2023-02-28T11:38:44;11.13;;;9.17;;
9667;SDS011;4872;48.316;10.650;2023-02-28T11:41:16;11.63;;;9.47;;
9667;SDS011;4872;48.316;10.650;2023-02-28T11:44:01;12.47;;;9.70;;
9667;SDS011;4872;48.316;10.650;2023-02-28T11:46:39;12.33;;;10.27;;
9667;SDS011;4872;48.316;10.650;2023-02-28T11:49:15;12.77;;;9.97;;
9667;SDS011;4872;48.316;10.650;2023-02-28T11:51:53;13.80;;;10.73;;
9667;SDS011;4872;48.316;10.650;2023-02-28T11:54:31;10.53;;;9.43;;
9667;SDS011;4872;48.316;10.650;2023-02-28T11:57:17;13.47;;;10.10;;
9667;SDS011;4872;48.316;10.650;2023-02-28T11:59:58;14.73;;;12.60;;
9667;SDS011;4872;48.316;10.650;2023-02-28T12:02:30;10.43;;;9.30;;
9667;SDS011;4872;48.316;10.650;2023-02-28T12:05:11;11.80;;;9.53;;
9667;SDS011;4872;48.316;10.650;2023-02-28T12:07:52;11.47;;;9.90;;
9667;SDS011;4872;48.316;10.650;2023-02-28T12:10:27;11.90;;;9.53;;
9667;SDS011;4872;48.316;10.650;2023-02-28T12:13:06;12.33;;;9.47;;
9667;SDS011;4872;48.316;10.650;2023-02-28T12:16:02;12.07;;;10.67;;
9667;SDS011;4872;48.316;10.650;2023-02-28T12:18:56;10.83;;;9.67;;
9667;SDS011;4872;48.316;10.650;2023-02-28T12:21:36;11.30;;;9.83;;
9667;SDS011;4872;48.316;10.650;2023-02-28T12:27:15;14.03;;;10.10;;
9667;SDS011;4872;48.316;10.650;2023-02-28T12:29:46;11.80;;;9.90;;
9667;SDS011;4872;48.316;10.650;2023-02-28T12:32:16;11.37;;;9.47;;
9667;SDS011;4872;48.316;10.650;2023-02-28T12:34:49;12.67;;;9.80;;
9667;SDS011;4872;48.316;10.650;2023-02-28T12:37:21;10.73;;;9.43;;
9667;SDS011;4872;48.316;10.650;2023-02-28T12:39:53;10.80;;;9.13;;
9667;SDS011;4872;48.316;10.650;2023-02-28T12:42:26;10.30;;;8.20;;
9667;SDS011;4872;48.316;10.650;2023-02-28T12:44:56;13.57;;;10.40;;
9667;SDS011;4872;48.316;10.650;2023-02-28T12:47:25;20.20;;;15.73;;
9667;SDS011;4872;48.316;10.650;2023-02-28T12:49:53;11.17;;;9.33;;
9667;SDS011;4872;48.316;10.650;2023-02-28T12:52:25;10.23;;;9.17;;
9667;SDS011;4872;48.316;10.650;2023-02-28T12:55:00;11.50;;;10.30;;
9667;SDS011;4872;48.316;10.650;2023-02-28T12:57:32;11.63;;;10.13;;
9667;SDS011;4872;48.316;10.650;2023-02-28T13:00:03;11.93;;;9.87;;
9667;SDS011;4872;48.316;10.650;2023-02-28T13:02:44;11.10;;;9.87;;
9667;SDS011;4872;48.316;10.650;2023-02-28T13:05:30;15.87;;;10.40;;
9667;SDS011;4872;48.316;10.650;2023-02-28T13:08:20;13.83;;;10.53;;
9667;SDS011;4872;48.316;10.650;2023-02-28T13:10:59;11.77;;;10.03;;
9667;SDS011;4872;48.316;10.650;2023-02-28T13:13:26;14.30;;;9.83;;
9667;SDS011;4872;48.316;10.650;2023-02-28T13:15:58;13.27;;;10.43;;
9667;SDS011;4872;48.316;10.650;2023-02-28T13:18:28;12.03;;;10.33;;
9667;SDS011;4872;48.316;10.650;2023-02-28T13:20:59;14.37;;;10.73;;
9667;SDS011;4872;48.316;10.650;2023-02-28T13:23:40;10.67;;;9.17;;
9667;SDS011;4872;48.316;10.650;2023-02-28T13:29:39;11.27;;;10.07;;
9667;SDS011;4872;48.316;10.650;2023-02-28T13:35:14;11.03;;;9.93;;
9667;SDS011;4872;48.316;10.650;2023-02-28T13:44:09;10.53;;;9.47;;
9667;SDS011;4872;48.316;10.650;2023-02-28T13:46:38;11.33;;;10.23;;
9667;SDS011;4872;48.316;10.650;2023-02-28T13:49:43;12.53;;;10.00;;
9667;SDS011;4872;48.316;10.650;2023-02-28T13:52:12;13.53;;;10.47;;
9667;SDS011;4872;48.316;10.650;2023-02-28T13:57:56;13.13;;;10.37;;
9667;SDS011;4872;48.316;10.650;2023-02-28T14:00:40;11.23;;;10.03;;
9667;SDS011;4872;48.316;10.650;2023-02-28T14:03:23;13.30;;;9.60;;
9667;SDS011;4872;48.316;10.650;2023-02-28T14:06:09;11.17;;;9.97;;
9667;SDS011;4872;48.316;10.650;2023-02-28T14:08:45;11.37;;;10.10;;
9667;SDS011;4872;48.316;10.650;2023-02-28T14:11:25;10.97;;;9.00;;
9667;SDS011;4872;48.316;10.650;2023-02-28T14:13:56;12.00;;;10.23;;
9667;SDS011;4872;48.316;10.650;2023-02-28T14:16:23;13.63;;;9.80;;
9667;SDS011;4872;48.316;10.650;2023-02-28T14:18:55;12.07;;;10.53;;
9667;SDS011;4872;48.316;10.650;2023-02-28T14:21:27;15.63;;;10.87;;
9667;SDS011;4872;48.316;10.650;2023-02-28T14:24:06;11.53;;;9.60;;
9667;SDS011;4872;48.316;10.650;2023-02-28T15:00:24;14.47;;;10.80;;
9667;SDS011;4872;48.316;10.650;2023-02-28T15:03:23;11.20;;;9.67;;
9667;SDS011;4872;48.316;10.650;2023-02-28T15:06:13;12.13;;;9.97;;
9667;SDS011;4872;48.316;10.650;2023-02-28T15:08:42;12.03;;;10.07;;
9667;SDS011;4872;48.316;10.650;2023-02-28T15:11:13;12.43;;;10.27;;
9667;SDS011;4872;48.316;10.650;2023-02-28T15:13:46;11.30;;;10.00;;
9667;SDS011;4872;48.316;10.650;2023-02-28T15:16:16;12.37;;;10.33;;
9667;SDS011;4872;48.316;10.650;2023-02-28T15:18:47;11.80;;;10.50;;
9667;SDS011;4872;48.316;10.650;2023-02-28T15:21:18;12.43;;;10.30;;
9667;SDS011;4872;48.316;10.650;2023-02-28T15:23:48;11.70;;;9.63;;
9667;SDS011;4872;48.316;10.650;2023-02-28T15:26:19;10.50;;;9.40;;
9667;SDS011;4872;48.316;10.650;2023-02-28T15:28:50;12.20;;;10.37;;
9667;SDS011;4872;48.316;10.650;2023-02-28T15:31:21;11.90;;;9.80;;
9667;SDS011;4872;48.316;10.650;2023-02-28T15:33:53;12.77;;;10.27;;
9667;SDS011;4872;48.316;10.650;2023-02-28T15:36:23;11.43;;;9.77;;
9667;SDS011;4872;48.316;10.650;2023-02-28T15:38:55;10.90;;;9.80;;
9667;SDS011;4872;48.316;10.650;2023-02-28T15:41:24;11.33;;;9.77;;
9667;SDS011;4872;48.316;10.650;2023-02-28T15:44:16;11.50;;;9.83;;
9667;SDS011;4872;48.316;10.650;2023-02-28T15:47:04;11.57;;;10.00;;
9667;SDS011;4872;48.316;10.650;2023-02-28T15:49:47;11.23;;;10.03;;
9667;SDS011;4872;48.316;10.650;2023-02-28T15:52:24;10.67;;;9.57;;
9667;SDS011;4872;48.316;10.650;2023-02-28T15:54:56;10.60;;;9.50;;
9667;SDS011;4872;48.316;10.650;2023-02-28T15:57:24;10.73;;;9.47;;
9667;SDS011;4872;48.316;10.650;2023-02-28T15:59:56;18.07;;;14.73;;
9667;SDS011;4872;48.316;10.650;2023-02-28T16:02:30;11.27;;;10.07;;
9667;SDS011;4872;48.316;10.650;2023-02-28T16:05:00;11.97;;;9.50;;
9667;SDS011;4872;48.316;10.650;2023-02-28T16:07:45;14.43;;;10.30;;
9667;SDS011;4872;48.316;10.650;2023-02-28T16:10:13;13.00;;;9.43;;
9667;SDS011;4872;48.316;10.650;2023-02-28T16:12:40;12.77;;;10.10;;
9667;SDS011;4872;48.316;10.650;2023-02-28T16:15:17;13.13;;;9.83;;
9667;SDS011;4872;48.316;10.650;2023-02-28T16:17:46;12.67;;;9.97;;
9667;SDS011;4872;48.316;10.650;2023-02-28T16:20:13;11.83;;;10.17;;
9667;SDS011;4872;48.316;10.650;2023-02-28T16:22:41;10.93;;;9.70;;
9667;SDS011;4872;48.316;10.650;2023-02-28T16:25:10;11.37;;;10.00;;
9667;SDS011;4872;48.316;10.650;2023-02-28T16:27:38;12.17;;;10.00;;
9667;SDS011;4872;48.316;10.650;2023-02-28T16:30:05;13.57;;;10.57;;
9667;SDS011;4872;48.316;10.650;2023-02-28T16:32:35;12.30;;;10.97;;
9667;SDS011;4872;48.316;10.650;2023-02-28T16:35:02;15.20;;;11.83;;
9667;SDS011;4872;48.316;10.650;2023-02-28T16:37:31;13.90;;;11.43;;
9667;SDS011;4872;48.316;10.650;2023-02-28T16:39:58;15.00;;;11.30;;
9667;SDS011;4872;48.316;10.650;2023-02-28T16:42:25;15.30;;;12.27;;
9667;SDS011;4872;48.316;10.650;2023-02-28T16:44:54;14.97;;;12.97;;
9667;SDS011;4872;48.316;10.650;2023-02-28T16:47:24;16.10;;;12.77;;
9667;SDS011;4872;48.316;10.650;2023-02-28T16:49:53;14.57;;;12.77;;
9667;SDS011;4872;48.316;10.650;2023-02-28T16:52:19;15.23;;;12.23;;
9667;SDS011;4872;48.316;10.650;2023-02-28T16:54:46;14.70;;;12.17;;
9667;SDS011;4872;48.316;10.650;2023-02-28T16:57:16;14.87;;;12.20;;
9667;SDS011;4872;48.316;10.650;2023-02-28T16:59:45;17.70;;;13.90;;
9667;SDS011;4872;48.316;10.650;2023-02-28T17:02:13;14.90;;;13.30;;
9667;SDS011;4872;48.316;10.650;2023-02-28T17:04:41;15.50;;;12.87;;
9667;SDS011;4872;48.316;10.650;2023-02-28T17:07:10;15.90;;;13.57;;
9667;SDS011;4872;48.316;10.650;2023-02-28T17:09:38;18.13;;;14.10;;
9667;SDS011;4872;48.316;10.650;2023-02-28T17:12:05;15.67;;;12.37;;
9667;SDS011;4872;48.316;10.650;2023-02-28T17:14:33;17.80;;;15.17;;
9667;SDS011;4872;48.316;10.650;2023-02-28T17:16:59;20.30;;;15.47;;
9667;SDS011;4872;48.316;10.650;2023-02-28T17:19:26;23.30;;;16.70;;
9667;SDS011;4872;48.316;10.650;2023-02-28T17:21:54;19.20;;;14.37;;
9667;SDS011;4872;48.316;10.650;2023-02-28T17:24:22;39.83;;;24.80;;
9667;SDS011;4872;48.316;10.650;2023-02-28T17:26:48;36.27;;;28.07;;
9667;SDS011;4872;48.316;10.650;2023-02-28T17:29:16;32.27;;;23.63;;
9667;SDS011;4872;48.316;10.650;2023-02-28T17:31:44;23.33;;;18.93;;
9667;SDS011;4872;48.316;10.650;2023-02-28T17:34:11;20.97;;;17.67;;
9667;SDS011;4872;48.316;10.650;2023-02-28T17:36:43;21.17;;;16.03;;
9667;SDS011;4872;48.316;10.650;2023-02-28T17:39:10;20.87;;;15.73;;
9667;SDS011;4872;48.316;10.650;2023-02-28T17:41:40;17.23;;;14.17;;
9667;SDS011;4872;48.316;10.650;2023-02-28T17:44:07;17.90;;;14.23;;
9667;SDS011;4872;48.316;10.650;2023-02-28T17:46:34;15.70;;;13.83;;
9667;SDS011;4872;48.316;10.650;2023-02-28T17:49:00;18.17;;;14.30;;
9667;SDS011;4872;48.316;10.650;2023-02-28T17:51:27;19.17;;;14.67;;
9667;SDS011;4872;48.316;10.650;2023-02-28T17:53:54;18.10;;;13.93;;
9667;SDS011;4872;48.316;10.650;2023-02-28T17:56:21;21.27;;;15.43;;
9667;SDS011;4872;48.316;10.650;2023-02-28T17:58:51;17.13;;;14.07;;
9667;SDS011;4872;48.316;10.650;2023-02-28T18:01:19;19.73;;;15.20;;
9667;SDS011;4872;48.316;10.650;2023-02-28T18:03:47;19.70;;;14.80;;
9667;SDS011;4872;48.316;10.650;2023-02-28T18:06:15;19.40;;;14.50;;
9667;SDS011;4872;48.316;10.650;2023-02-28T18:08:45;19.93;;;14.07;;
9667;SDS011;4872;48.316;10.650;2023-02-28T18:11:12;22.37;;;17.37;;
9667;SDS011;4872;48.316;10.650;2023-02-28T18:13:46;20.93;;;15.77;;
9667;SDS011;4872;48.316;10.650;2023-02-28T18:16:17;22.17;;;16.03;;
9667;SDS011;4872;48.316;10.650;2023-02-28T18:18:45;21.77;;;15.43;;
9667;SDS011;4872;48.316;10.650;2023-02-28T18:21:13;20.20;;;15.60;;
9667;SDS011;4872;48.316;10.650;2023-02-28T18:23:41;23.00;;;15.83;;
9667;SDS011;4872;48.316;10.650;2023-02-28T18:26:12;22.73;;;16.30;;
9667;SDS011;4872;48.316;10.650;2023-02-28T18:28:39;22.93;;;15.97;;
9667;SDS011;4872;48.316;10.650;2023-02-28T18:31:08;21.13;;;16.77;;
9667;SDS011;4872;48.316;10.650;2023-02-28T18:33:38;22.63;;;16.00;;
9667;SDS011;4872;48.316;10.650;2023-02-28T18:36:05;43.93;;;29.57;;
9667;SDS011;4872;48.316;10.650;2023-02-28T18:38:32;54.57;;;35.03;;
9667;SDS011;4872;48.316;10.650;2023-02-28T18:41:00;59.30;;;36.87;;
9667;SDS011;4872;48.316;10.650;2023-02-28T18:43:28;43.37;;;27.93;;
9667;SDS011;4872;48.316;10.650;2023-02-28T18:45:56;35.37;;;22.90;;
9667;SDS011;4872;48.316;10.650;2023-02-28T18:48:23;30.30;;;21.13;;
9667;SDS011;4872;48.316;10.650;2023-02-28T18:50:51;27.20;;;18.93;;
9667;SDS011;4872;48.316;10.650;2023-02-28T18:53:18;28.30;;;20.47;;
9667;SDS011;4872;48.316;10.650;2023-02-28T18:55:45;27.27;;;20.53;;
9667;SDS011;4872;48.316;10.650;2023-02-28T18:58:12;32.43;;;22.87;;
9667;SDS011;4872;48.316;10.650;2023-02-28T19:00:38;31.27;;;20.67;;
9667;SDS011;4872;48.316;10.650;2023-02-28T19:03:05;22.83;;;18.10;;
9667;SDS011;4872;48.316;10.650;2023-02-28T19:05:32;26.20;;;19.17;;
9667;SDS011;4872;48.316;10.650;2023-02-28T19:08:00;22.20;;;16.33;;
9667;SDS011;4872;48.316;10.650;2023-02-28T19:10:28;23.13;;;17.37;;
9667;SDS011;4872;48.316;10.650;2023-02-28T19:12:55;21.43;;;15.07;;
9667;SDS011;4872;48.316;10.650;2023-02-28T19:15:22;17.57;;;14.27;;
9667;SDS011;4872;48.316;10.650;2023-02-28T19:17:49;18.50;;;13.57;;
9667;SDS011;4872;48.316;10.650;2023-02-28T19:20:16;17.27;;;12.67;;
9667;SDS011;4872;48.316;10.650;2023-02-28T19:22:43;20.60;;;13.73;;
9667;SDS011;4872;48.316;10.650;2023-02-28T19:25:15;18.57;;;13.70;;
9667;SDS011;4872;48.316;10.650;2023-02-28T19:27:51;19.20;;;14.87;;
9667;SDS011;4872;48.316;10.650;2023-02-28T19:30:18;18.60;;;13.93;;
9667;SDS011;4872;48.316;10.650;2023-02-28T19:32:46;22.50;;;14.47;;
9667;SDS011;4872;48.316;10.650;2023-02-28T19:35:12;18.70;;;14.67;;
9667;SDS011;4872;48.316;10.650;2023-02-28T19:37:40;18.40;;;14.10;;
9667;SDS011;4872;48.316;10.650;2023-02-28T19:40:07;18.57;;;14.20;;
9667;SDS011;4872;48.316;10.650;2023-02-28T19:42:38;18.53;;;14.07;;
9667;SDS011;4872;48.316;10.650;2023-02-28T19:45:06;16.80;;;13.17;;
9667;SDS011;4872;48.316;10.650;2023-02-28T19:47:38;17.57;;;14.33;;
9667;SDS011;4872;48.316;10.650;2023-02-28T19:50:05;18.83;;;13.13;;
9667;SDS011;4872;48.316;10.650;2023-02-28T19:52:34;19.03;;;14.33;;
9667;SDS011;4872;48.316;10.650;2023-02-28T19:55:01;18.17;;;13.80;;
9667;SDS011;4872;48.316;10.650;2023-02-28T19:57:27;19.93;;;13.63;;
9667;SDS011;4872;48.316;10.650;2023-02-28T19:59:56;18.90;;;13.53;;
9667;SDS011;4872;48.316;10.650;2023-02-28T20:02:22;18.20;;;13.43;;
9667;SDS011;4872;48.316;10.650;2023-02-28T20:04:50;18.87;;;13.60;;
9667;SDS011;4872;48.316;10.650;2023-02-28T20:07:18;16.20;;;12.00;;
9667;SDS011;4872;48.316;10.650;2023-02-28T20:09:45;17.50;;;12.83;;
9667;SDS011;4872;48.316;10.650;2023-02-28T20:12:12;16.90;;;13.43;;
9667;SDS011;4872;48.316;10.650;2023-02-28T20:14:40;19.83;;;13.57;;
9667;SDS011;4872;48.316;10.650;2023-02-28T20:17:08;18.77;;;13.57;;
9667;SDS011;4872;48.316;10.650;2023-02-28T20:19:35;19.60;;;14.40;;
9667;SDS011;4872;48.316;10.650;2023-02-28T20:22:03;18.93;;;13.40;;
9667;SDS011;4872;48.316;10.650;2023-02-28T20:24:32;17.40;;;13.03;;
9667;SDS011;4872;48.316;10.650;2023-02-28T20:26:58;16.07;;;13.20;;
9667;SDS011;4872;48.316;10.650;2023-02-28T20:29:25;18.63;;;13.20;;
9667;SDS011;4872;48.316;10.650;2023-02-28T20:31:52;17.70;;;12.73;;
9667;SDS011;4872;48.316;10.650;2023-02-28T20:34:20;18.23;;;13.73;;
9667;SDS011;4872;48.316;10.650;2023-02-28T20:36:47;19.10;;;14.17;;
9667;SDS011;4872;48.316;10.650;2023-02-28T20:39:14;20.13;;;14.03;;
9667;SDS011;4872;48.316;10.650;2023-02-28T20:41:41;17.70;;;13.53;;
9667;SDS011;4872;48.316;10.650;2023-02-28T20:44:10;19.27;;;13.57;;
9667;SDS011;4872;48.316;10.650;2023-02-28T20:46:38;19.13;;;14.37;;
9667;SDS011;4872;48.316;10.650;2023-02-28T20:49:05;18.80;;;14.57;;
9667;SDS011;4872;48.316;10.650;2023-02-28T20:51:33;16.13;;;12.60;;
9667;SDS011;4872;48.316;10.650;2023-02-28T20:54:04;18.23;;;13.53;;